^^
Datos históricos de la estación: Murcia-Puente Tocinos
Diario Informe para Marzo 4, 2019 Unidades:  Métrico    Ingés   Ambas
Diario Semanal Mensual Anual
  Máxima: Mínima: Promedio:
Temperatura: 18.3 °C 11.4 °C 15.2 °C
Punto de rocio: 10.4 °C 2.2 °C 6.7 °C
Humedad: 83% 37% 59%
Velocidad viento: 20.1km/h 0km/h 8.6km/h
Racha viento: 37km/h - -
Viento- - SSE
Presión: 1004.4 hPa 999.6 hPa -
Precipitación: 0.0 mm    
 
 
Tabla de datos para Marzo 4, 2019
Hora Temperatura Punto de rocio Presión Viento Velocidad viento Racha viento Humedad Intensidad lluvia(por hora) Nubes
00:04 18.1 °C 8.3 °C 999.6 hPa Sur 8.4 km/h 14.5 km/h 53% 0.0 mm
00:09 18 °C 8.2 °C 999.6 hPa OSO 8 km/h 11.3 km/h 53% 0.0 mm
00:14 17.9 °C 8 °C 999.6 hPa SSO 6.9 km/h 11.3 km/h 52.2% 0.0 mm
00:19 17.9 °C 7.2 °C 999.7 hPa OSO 6.9 km/h 13.7 km/h 49.6% 0.0 mm
00:24 18 °C 7 °C 999.7 hPa Oeste 6.9 km/h 14.5 km/h 48.8% 0.0 mm
00:29 18.1 °C 6.6 °C 999.7 hPa ONO 6.9 km/h 20.4 km/h 47.2% 0.0 mm
00:34 18.2 °C 6 °C 999.8 hPa NO 6.9 km/h 25.1 km/h 45.1% 0.0 mm
00:39 18.2 °C 5.2 °C 999.8 hPa NO 9.2 km/h 28.2 km/h 42.4% 0.0 mm
00:44 18.3 °C 4.8 °C 999.8 hPa ONO 13 km/h 27.4 km/h 41% 0.0 mm
00:49 18.3 °C 4.8 °C 999.8 hPa ONO 13 km/h 24.1 km/h 41% 0.0 mm
00:54 18.2 °C 4.6 °C 999.8 hPa ONO 13 km/h 20.9 km/h 40.6% 0.0 mm
00:59 18.2 °C 4.4 °C 999.8 hPa ONO 13.3 km/h 20.9 km/h 40% 0.0 mm
01:04 18.2 °C 4.3 °C 999.8 hPa ONO 13.7 km/h 20.4 km/h 40% 0.0 mm
01:09 18.1 °C 4.2 °C 999.8 hPa ONO 13.1 km/h 24.5 km/h 39.7% 0.0 mm
01:14 18 °C 4.1 °C 999.8 hPa ONO 12.2 km/h 24.1 km/h 39.9% 0.0 mm
01:19 17.9 °C 4.1 °C 1000.1 hPa ONO 11.8 km/h 20.9 km/h 40% 0.0 mm
01:24 17.8 °C 4 °C 1000.1 hPa ONO 11.1 km/h 19.3 km/h 40% 0.0 mm
01:29 17.7 °C 4 °C 1000.1 hPa ONO 9.3 km/h 16.1 km/h 40.2% 0.0 mm
01:34 17.6 °C 4.2 °C 1000.4 hPa NNE 6.5 km/h 11.3 km/h 41% 0.0 mm
01:39 17.4 °C 4.3 °C 1000.4 hPa NE 5.4 km/h 8 km/h 41.8% 0.0 mm
01:44 17.3 °C 3.9 °C 1000.4 hPa ENE 3.9 km/h 8 km/h 41.1% 0.0 mm
01:49 17.3 °C 4.2 °C 1000.4 hPa SSO 3.9 km/h 9.3 km/h 41.7% 0.0 mm
01:54 17.2 °C 3.9 °C 1000.4 hPa Sur 3.9 km/h 10 km/h 41.2% 0.0 mm
01:59 17.3 °C 3.6 °C 1000.4 hPa OSO 4.8 km/h 13 km/h 40.2% 0.0 mm
02:04 17.4 °C 3.8 °C 1000.5 hPa Oeste 5.8 km/h 12.9 km/h 40.3% 0.0 mm
02:09 17.3 °C 3.8 °C 1000.5 hPa Oeste 5.8 km/h 11.1 km/h 40.6% 0.0 mm
02:14 17.3 °C 3.8 °C 1000.5 hPa OSO 5.8 km/h 11.3 km/h 40.8% 0.0 mm
02:19 17.2 °C 3.5 °C 1000.5 hPa Oeste 5.3 km/h 9.3 km/h 40.2% 0.0 mm
02:24 17.3 °C 3.6 °C 1000.5 hPa Oeste 4.7 km/h 9.7 km/h 40.1% 0.0 mm
02:29 17.2 °C 3.8 °C 1000.5 hPa OSO 4.7 km/h 8.4 km/h 40.9% 0.0 mm
02:34 17.2 °C 3.8 °C 1000.6 hPa SO 4.7 km/h 8 km/h 41% 0.0 mm
02:39 17.1 °C 3.9 °C 1000.6 hPa SO 3.9 km/h 4.8 km/h 41.5% 0.0 mm
02:44 17 °C 3.7 °C 1000.6 hPa OSO 2.9 km/h 14.8 km/h 41% 0.0 mm
02:49 16.9 °C 3.6 °C 1000.6 hPa NO 4 km/h 14.8 km/h 41.1% 0.0 mm
02:54 16.8 °C 3.7 °C 1000.4 hPa ONO 5.8 km/h 13.7 km/h 41.7% 0.0 mm
02:59 16.7 °C 3.8 °C 1000.4 hPa NNO 6.1 km/h 14.5 km/h 42.3% 0.0 mm
03:04 16.4 °C 5.1 °C 1000.7 hPa NNE 6.5 km/h 19 km/h 47.4% 0.0 mm
03:09 15.5 °C 6.4 °C 1000.7 hPa NE 7.7 km/h 19.3 km/h 54.7% 0.0 mm
03:14 14.8 °C 7.5 °C 1000.7 hPa NE 9.5 km/h 16.1 km/h 61.7% 0.0 mm
03:19 14.3 °C 8.7 °C 1000.7 hPa NNE 9.7 km/h 16.7 km/h 69% 0.0 mm
03:24 14 °C 9.6 °C 1000.7 hPa NNE 10 km/h 18.5 km/h 74.8% 0.0 mm
03:29 13.7 °C 10.1 °C 1000.7 hPa NNE 10.1 km/h 19.3 km/h 78.4% 0.0 mm
03:34 13.5 °C 10.2 °C 1000.8 hPa NE 10.3 km/h 19.3 km/h 80.3% 0.0 mm
03:39 13.4 °C 10.3 °C 1000.8 hPa NNE 10.3 km/h 17.2 km/h 81.3% 0.0 mm
03:44 13.3 °C 10.3 °C 1000.8 hPa NNE 10.3 km/h 17.7 km/h 82.3% 0.0 mm
03:49 13.2 °C 10.4 °C 1000.8 hPa NE 10.2 km/h 17.2 km/h 83% 0.0 mm
03:54 13.2 °C 10.4 °C 1000.8 hPa NE 10 km/h 17.7 km/h 83% 0.0 mm
03:59 13.1 °C 10.3 °C 1000.8 hPa NE 9.2 km/h 14.8 km/h 83% 0.0 mm
04:04 13 °C 10.2 °C 1000.9 hPa NE 8.4 km/h 14.5 km/h 83% 0.0 mm
04:09 13 °C 10.1 °C 1000.9 hPa NE 8 km/h 17.2 km/h 82.9% 0.0 mm
04:14 13 °C 10 °C 1000.9 hPa NE 7.6 km/h 17.7 km/h 82% 0.0 mm
04:19 12.9 °C 9.9 °C 1000.9 hPa NE 7.3 km/h 11.3 km/h 82% 0.0 mm
04:24 12.9 °C 9.7 °C 1000.8 hPa NE 6.9 km/h 16.7 km/h 81.2% 0.0 mm
04:29 12.8 °C 9.6 °C 1000.8 hPa NE 6.9 km/h 16.1 km/h 80.6% 0.0 mm
04:34 12.8 °C 9.4 °C 1001.0 hPa NE 6.9 km/h 14.5 km/h 80% 0.0 mm
04:39 12.8 °C 9.4 °C 1001.0 hPa NE 6.2 km/h 12.9 km/h 80% 0.0 mm
04:44 12.7 °C 9.2 °C 1001.0 hPa NE 5 km/h 11.1 km/h 79.5% 0.0 mm
04:49 12.7 °C 9.2 °C 1001.3 hPa NE 5.6 km/h 11.3 km/h 79% 0.0 mm
04:54 12.7 °C 9.2 °C 1001.3 hPa NE 6.5 km/h 9.7 km/h 79% 0.0 mm
04:59 12.6 °C 9.1 °C 1001.3 hPa NE 6.5 km/h 11.1 km/h 79% 0.0 mm
05:04 12.6 °C 9.1 °C 1001.3 hPa ENE 6.5 km/h 11.3 km/h 79% 0.0 mm
05:09 12.7 °C 9.1 °C 1001.3 hPa ENE 6.9 km/h 13 km/h 79% 0.0 mm
05:14 12.7 °C 9 °C 1001.3 hPa ENE 7.6 km/h 14.8 km/h 78.1% 0.0 mm
05:19 12.7 °C 8.9 °C 1001.3 hPa NE 7.1 km/h 14.5 km/h 78% 0.0 mm
05:24 12.6 °C 8.9 °C 1001.2 hPa ENE 6.5 km/h 13 km/h 78% 0.0 mm
05:29 12.6 °C 8.9 °C 1001.2 hPa Este 6.2 km/h 13 km/h 78% 0.0 mm
05:34 12.6 °C 8.9 °C 1001.4 hPa Este 5.8 km/h 12.9 km/h 78% 0.0 mm
05:39 12.5 °C 8.8 °C 1001.4 hPa Este 5.8 km/h 10 km/h 78% 0.0 mm
05:44 12.4 °C 8.5 °C 1001.4 hPa Este 5.8 km/h 11.1 km/h 77.1% 0.0 mm
05:49 12.4 °C 8.5 °C 1001.4 hPa ENE 6 km/h 13.7 km/h 77% 0.0 mm
05:54 12.3 °C 8.3 °C 1001.4 hPa ENE 6.5 km/h 14.5 km/h 76.1% 0.0 mm
05:59 12.4 °C 8.3 °C 1001.4 hPa NE 6.7 km/h 14.8 km/h 76% 0.0 mm
06:04 12.4 °C 8.3 °C 1001.6 hPa Este 6.9 km/h 14.5 km/h 75.8% 0.0 mm
06:09 12.5 °C 8.2 °C 1001.6 hPa ENE 6.5 km/h 11.3 km/h 75% 0.0 mm
06:14 12.4 °C 8.1 °C 1001.6 hPa NE 5.8 km/h 9.7 km/h 75% 0.0 mm
06:19 12.4 °C 8.1 °C 1001.6 hPa ENE 5 km/h 9.3 km/h 75.2% 0.0 mm
06:24 12.4 °C 8.3 °C 1001.6 hPa NE 3.9 km/h 9.7 km/h 76% 0.0 mm
06:29 12.4 °C 8.3 °C 1001.6 hPa ENE 4.2 km/h 8.4 km/h 76% 0.0 mm
06:34 12.4 °C 8.2 °C 1001.8 hPa ENE 4.7 km/h 10 km/h 76% 0.0 mm
06:39 12.3 °C 8.2 °C 1001.8 hPa ENE 4.7 km/h 9.7 km/h 76% 0.0 mm
06:44 12.3 °C 8.2 °C 1001.8 hPa ENE 4.7 km/h 8 km/h 76% 0.0 mm
06:49 12.3 °C 8.2 °C 1001.8 hPa ENE 4.3 km/h 8 km/h 76% 0.0 mm
06:54 12.3 °C 8.2 °C 1001.8 hPa NE 3.9 km/h 7.4 km/h 76% 0.0 mm
06:59 12.3 °C 8.2 °C 1001.8 hPa Este 3.9 km/h 8 km/h 76% 0.0 mm
07:04 12.3 °C 8.2 °C 1002.0 hPa ENE 3.9 km/h 8 km/h 76% 0.0 mm
07:09 12.3 °C 8.2 °C 1002.0 hPa ENE 3.6 km/h 8 km/h 76% 0.0 mm
07:14 12.3 °C 8.1 °C 1002.0 hPa NE 3.2 km/h 8 km/h 76% 0.0 mm
07:19 12.2 °C 8.1 °C 1002.2 hPa NNE 3.5 km/h 8 km/h 76.2% 0.0 mm
07:24 12.1 °C 8.2 °C 1002.2 hPa NNE 3.9 km/h 6.4 km/h 77% 0.0 mm
07:29 11.9 °C 8.1 °C 1002.2 hPa NNE 3.2 km/h 5.8 km/h 77.6% 0.0 mm
07:34 11.8 °C 8.1 °C 1002.4 hPa NNE 2.2 km/h 6.4 km/h 78% 0.0 mm
07:39 11.7 °C 8.2 °C 1002.4 hPa NNO 2.6 km/h 8 km/h 78.7% 0.0 mm
07:44 11.7 °C 8.1 °C 1002.4 hPa NNO 3.2 km/h 8 km/h 79% 0.0 mm
07:49 11.6 °C 8.2 °C 1002.4 hPa NNO 3.1 km/h 5.8 km/h 79.6% 0.0 mm
07:54 11.5 °C 8.2 °C 1002.4 hPa NNO 2.9 km/h 7.4 km/h 80% 0.0 mm
07:59 11.4 °C 8.1 °C 1002.4 hPa NNO 3 km/h 8 km/h 80% 0.0 mm
08:04 11.4 °C 8.1 °C 1002.6 hPa NNO 3.2 km/h 5.6 km/h 80% 0.0 mm
08:09 11.4 °C 8.1 °C 1002.6 hPa NO 3.1 km/h 8.4 km/h 80.1% 0.0 mm
08:14 11.4 °C 8.2 °C 1002.6 hPa NO 2.9 km/h 8 km/h 80.6% 0.0 mm
08:19 11.4 °C 8.3 °C 1002.8 hPa NO 3.6 km/h 8 km/h 81% 0.0 mm
08:24 11.4 °C 8.3 °C 1002.8 hPa NO 4.7 km/h 8 km/h 81% 0.0 mm
08:29 11.4 °C 8.3 °C 1002.8 hPa NO 4.3 km/h 8 km/h 81% 0.0 mm
08:34 11.6 °C 8.4 °C 1003.0 hPa NO 3.9 km/h 8 km/h 81% 0.0 mm
08:39 11.6 °C 8.4 °C 1003.0 hPa NO 3.6 km/h 8 km/h 80.6% 0.0 mm
08:44 11.7 °C 8.4 °C 1003.0 hPa NO 3.2 km/h 6.4 km/h 80% 0.0 mm
08:49 11.7 °C 8.4 °C 1003.2 hPa NO 3.2 km/h 7.4 km/h 80% 0.0 mm
08:54 11.8 °C 8.4 °C 1003.2 hPa NO 3.2 km/h 8 km/h 80% 0.0 mm
08:59 11.9 °C 8.5 °C 1003.2 hPa NO 3.1 km/h 5.6 km/h 80% 0.0 mm
09:04 12 °C 8.6 °C 1003.4 hPa NO 2.9 km/h 4.8 km/h 80% 0.0 mm
09:09 12.1 °C 8.7 °C 1003.4 hPa NO 2.7 km/h 4.8 km/h 79.5% 0.0 mm
09:14 12.2 °C 8.6 °C 1003.4 hPa NO 2.2 km/h 4.8 km/h 79% 0.0 mm
09:19 12.3 °C 8.7 °C 1003.6 hPa NO 1.4 km/h   78.7% 0.0 mm
09:24 12.4 °C 8.7 °C 1003.6 hPa Calm   6.4 km/h 78% 0.0 mm
09:29 12.8 °C 8.9 °C 1003.6 hPa NE 1.1 km/h 9.3 km/h 77.1% 0.0 mm
09:34 13.1 °C 9 °C 1003.6 hPa NNE 2.9 km/h 9.7 km/h 76% 0.0 mm
09:39 13.4 °C 9.1 °C 1003.6 hPa NO 3 km/h 8 km/h 75.2% 0.0 mm
09:44 13.7 °C 9.1 °C 1003.6 hPa NNO 3.2 km/h 6.4 km/h 73.8% 0.0 mm
09:49 14 °C 8.9 °C 1003.7 hPa SE 3.1 km/h 7.6 km/h 71.4% 0.0 mm
09:54 13.9 °C 8.5 °C 1003.7 hPa SSE 2.9 km/h 10 km/h 70% 0.0 mm
09:59 13.8 °C 8.6 °C 1003.7 hPa SE 3.7 km/h 9.7 km/h 70.8% 0.0 mm
10:04 13.9 °C 8.6 °C 1003.7 hPa SE 4.6 km/h 11.1 km/h 70.3% 0.0 mm
10:09 13.9 °C 8.5 °C 1003.7 hPa SE 5.1 km/h 11.3 km/h 69.9% 0.0 mm
10:14 14.1 °C 8.3 °C 1003.7 hPa Sur 5.8 km/h 11.1 km/h 68.3% 0.0 mm
10:19 14.1 °C 8.2 °C 1003.9 hPa SSO 5.5 km/h 11.3 km/h 68.1% 0.0 mm
10:24 14.2 °C 8.4 °C 1003.9 hPa SE 5 km/h 10 km/h 68.3% 0.0 mm
10:29 14.3 °C 8.4 °C 1003.9 hPa SE 4.9 km/h 11.9 km/h 68% 0.0 mm
10:34 14.3 °C 8.4 °C 1003.9 hPa SE 4.7 km/h 13 km/h 67.4% 0.0 mm
10:39 14.3 °C 8.3 °C 1003.8 hPa Sur 5.5 km/h 12.9 km/h 67.2% 0.0 mm
10:44 14.4 °C 8.5 °C 1003.8 hPa SE 6.9 km/h 11.3 km/h 67.6% 0.0 mm
10:49 14.8 °C 8.4 °C 1003.9 hPa SSE 6.1 km/h 13.7 km/h 65.7% 0.0 mm
10:54 14.8 °C 8.3 °C 1003.9 hPa SE 4.7 km/h 14.5 km/h 65.1% 0.0 mm
10:59 14.8 °C 8.2 °C 1003.9 hPa SSO 5.2 km/h 13.7 km/h 64.2% 0.0 mm
11:04 14.8 °C 7.8 °C 1004.0 hPa OSO 5.8 km/h 14.5 km/h 63% 0.0 mm
11:09 14.8 °C 7.8 °C 1004.0 hPa SO 6.2 km/h 11.3 km/h 63% 0.0 mm
11:14 14.7 °C 7.6 °C 1004.0 hPa Oeste 6.9 km/h 9.7 km/h 62.3% 0.0 mm
11:19 14.8 °C 7.3 °C 1004.0 hPa Oeste 5.5 km/h 9.7 km/h 61% 0.0 mm
11:24 15.1 °C 7.5 °C 1003.9 hPa SO 3.2 km/h 7.6 km/h 60.4% 0.0 mm
11:29 15.5 °C 7.5 °C 1003.9 hPa SSE 3.5 km/h 8.4 km/h 58.8% 0.0 mm
11:34 15.7 °C 6.8 °C 1004.0 hPa Oeste 3.9 km/h 11.1 km/h 55.4% 0.0 mm
11:39 15.7 °C 6.2 °C 1004.0 hPa North 4.6 km/h 11.3 km/h 53% 0.0 mm
11:44 15.9 °C 5.4 °C 1004.0 hPa ESE 5.8 km/h 10 km/h 49.8% 0.0 mm
11:49 16 °C 5.5 °C 1004.2 hPa NE 5.3 km/h 9.7 km/h 49.7% 0.0 mm
11:54 16.1 °C 6 °C 1004.2 hPa NO 4.7 km/h 13.7 km/h 51.2% 0.0 mm
11:59 15.8 °C 6.2 °C 1004.2 hPa Oeste 6.3 km/h 18.5 km/h 52.9% 0.0 mm
12:04 15.4 °C 5.7 °C 1004.4 hPa ONO 8.4 km/h 19.3 km/h 52.4% 0.0 mm
12:09 15.2 °C 5.5 °C 1004.4 hPa Oeste 8.8 km/h 16.1 km/h 52.4% 0.0 mm
12:14 15.2 °C 5.3 °C 1004.4 hPa ONO 9.5 km/h 12.9 km/h 51.7% 0.0 mm
12:19 15.3 °C 4.7 °C 1004.4 hPa Oeste 8.1 km/h 11.3 km/h 49.4% 0.0 mm
12:24 15.4 °C 4.4 °C 1004.3 hPa Oeste 5.8 km/h 9.7 km/h 47.7% 0.0 mm
12:29 15.7 °C 4.2 °C 1004.3 hPa ONO 4.8 km/h 8.4 km/h 46.2% 0.0 mm
12:34 15.9 °C 4.3 °C 1004.3 hPa ENE 3.2 km/h 8 km/h 46% 0.0 mm
12:39 16.2 °C 4.6 °C 1004.3 hPa NNE 3.5 km/h 19 km/h 46.2% 0.0 mm
12:44 16.3 °C 4.5 °C 1004.3 hPa OSO 3.9 km/h 19.3 km/h 45.6% 0.0 mm
12:49 16.3 °C 4.6 °C 1004.3 hPa Oeste 5.7 km/h 19.3 km/h 46% 0.0 mm
12:54 16.2 °C 4.5 °C 1004.2 hPa OSO 8.7 km/h 17.7 km/h 46% 0.0 mm
12:59 16 °C 4.4 °C 1004.2 hPa OSO 7.7 km/h 9.7 km/h 46% 0.0 mm
13:04 15.9 °C 4.1 °C 1004.2 hPa Oeste 6.5 km/h 9.7 km/h 45.5% 0.0 mm
13:09 15.9 °C 4 °C 1004.1 hPa SSO 5.4 km/h 11.1 km/h 45.4% 0.0 mm
13:14 16.2 °C 4.2 °C 1004.1 hPa Sur 3.9 km/h 14.8 km/h 45% 0.0 mm
13:19 16.3 °C 4.3 °C 1004.1 hPa SSO 5.2 km/h 14.5 km/h 44.7% 0.0 mm
13:24 16.4 °C 4.1 °C 1004.0 hPa SSO 7.6 km/h 13 km/h 43.8% 0.0 mm
13:29 16.7 °C 3.9 °C 1004.0 hPa SSE 6.9 km/h 13 km/h 42.7% 0.0 mm
13:34 16.7 °C 3.6 °C 1004.0 hPa Sur 5.8 km/h 11.3 km/h 41.7% 0.0 mm
13:39 16.7 °C 3.4 °C 1003.9 hPa ESE 6.2 km/h 13 km/h 41% 0.0 mm
13:44 16.7 °C 2.6 °C 1003.9 hPa ESE 6.9 km/h 16.7 km/h 38.7% 0.0 mm
13:49 16.9 °C 2.4 °C 1003.9 hPa SE 7.6 km/h 16.1 km/h 37.8% 0.0 mm
13:54 17.1 °C 2.2 °C 1003.7 hPa SE 8.7 km/h 14.5 km/h 37% 0.0 mm
13:59 17.3 °C 2.8 °C 1003.7 hPa SSE 8.6 km/h 19 km/h 37.8% 0.0 mm
14:04 17.3 °C 2.8 °C 1003.7 hPa SE 8.4 km/h 19.3 km/h 38% 0.0 mm
14:09 17.3 °C 2.7 °C 1003.6 hPa ESE 8.8 km/h 16.1 km/h 37.8% 0.0 mm
14:14 17.4 °C 2.7 °C 1003.6 hPa ESE 9.5 km/h 14.8 km/h 37.4% 0.0 mm
14:19 17.3 °C 2.8 °C 1003.6 hPa Este 9.2 km/h 14.5 km/h 37.7% 0.0 mm
14:24 17.3 °C 3.6 °C 1003.4 hPa ESE 8.7 km/h 32.3 km/h 40.4% 0.0 mm
14:29 17.1 °C 5.9 °C 1003.4 hPa SE 10 km/h 33.8 km/h 47.8% 0.0 mm
14:34 17.1 °C 6.3 °C 1003.4 hPa SE 11.9 km/h 33.8 km/h 49.1% 0.0 mm
14:39 17 °C 6 °C 1003.1 hPa ESE 13 km/h 25.9 km/h 48.2% 0.0 mm
14:44 17 °C 5.5 °C 1003.1 hPa SE 14.8 km/h 24.5 km/h 46.7% 0.0 mm
14:49 16.9 °C 6 °C 1003.1 hPa SSE 14.5 km/h 24.5 km/h 48.7% 0.0 mm
14:54 16.9 °C 5.9 °C 1003.0 hPa SE 14 km/h 24.5 km/h 48.3% 0.0 mm
14:59 16.9 °C 5.1 °C 1003.0 hPa SE 14.7 km/h 24.1 km/h 45.8% 0.0 mm
15:04 17.1 °C 5.3 °C 1003.0 hPa SE 15.6 km/h 27 km/h 45.8% 0.0 mm
15:09 17.3 °C 5.9 °C 1002.9 hPa ESE 15.8 km/h 27.8 km/h 47% 0.0 mm
15:14 17.4 °C 5.7 °C 1002.9 hPa ESE 16.1 km/h 29.6 km/h 46.1% 0.0 mm
15:19 17.3 °C 4.9 °C 1002.9 hPa SSE 16.2 km/h 29 km/h 44% 0.0 mm
15:24 17.2 °C 5.1 °C 1002.6 hPa Sur 16.4 km/h 27 km/h 44.9% 0.0 mm
15:29 17.2 °C 5.6 °C 1002.6 hPa SSE 16.1 km/h 29.6 km/h 46.2% 0.0 mm
15:34 17.3 °C 4.9 °C 1002.6 hPa SSE 15.6 km/h 29 km/h 44% 0.0 mm
15:39 17.4 °C 5.2 °C 1002.3 hPa SE 15.6 km/h 25.9 km/h 44.5% 0.0 mm
15:44 17.5 °C 5 °C 1002.3 hPa SE 15.6 km/h 27.4 km/h 43.6% 0.0 mm
15:49 17.7 °C 5.7 °C 1002.3 hPa SE 15 km/h 29.6 km/h 45.1% 0.0 mm
15:54 17.6 °C 5.1 °C 1002.2 hPa SSE 14 km/h 29.6 km/h 43.8% 0.0 mm
15:59 17.7 °C 5.2 °C 1002.2 hPa SSE 15.1 km/h 29.6 km/h 43.8% 0.0 mm
16:04 17.6 °C 4.9 °C 1002.2 hPa SSE 16.4 km/h 29 km/h 43.1% 0.0 mm
16:09 17.6 °C 5.5 °C 1002.1 hPa SE 17.1 km/h 29.6 km/h 45.2% 0.0 mm
16:14 17.7 °C 6.1 °C 1002.1 hPa SE 18.4 km/h 29 km/h 46.8% 0.0 mm
16:19 17.8 °C 6.1 °C 1002.1 hPa SE 17.9 km/h 25.9 km/h 46.4% 0.0 mm
16:24 17.7 °C 5.9 °C 1002.0 hPa SE 17.2 km/h 29.1 km/h 46% 0.0 mm
16:29 17.6 °C 5.9 °C 1002.0 hPa SSE 17.5 km/h 29 km/h 46.3% 0.0 mm
16:34 17.7 °C 6.1 °C 1002.0 hPa ESE 18 km/h 29.1 km/h 46.5% 0.0 mm
16:39 17.6 °C 5.5 °C 1001.9 hPa SSE 17.1 km/h 29 km/h 45.1% 0.0 mm
16:44 17.6 °C 5.3 °C 1001.9 hPa SSE 15.6 km/h 24.1 km/h 44.5% 0.0 mm
16:49 17.7 °C 5.3 °C 1001.9 hPa SE 14.3 km/h 24.1 km/h 44.1% 0.0 mm
16:54 17.9 °C 5.5 °C 1001.7 hPa SE 12.2 km/h 22.5 km/h 44% 0.0 mm
16:59 18 °C 6.1 °C 1001.7 hPa SE 12.9 km/h 27.4 km/h 45.5% 0.0 mm
17:04 18.1 °C 6.3 °C 1001.7 hPa ESE 13.7 km/h 27.8 km/h 46.1% 0.0 mm
17:09 18.2 °C 6.3 °C 1001.6 hPa ESE 14.5 km/h 30.6 km/h 45.9% 0.0 mm
17:14 18 °C 6.3 °C 1001.6 hPa ESE 16.1 km/h 30.6 km/h 46.3% 0.0 mm
17:19 18 °C 6.6 °C 1001.7 hPa ESE 16.1 km/h 35.2 km/h 47.5% 0.0 mm
17:24 17.8 °C 6.8 °C 1001.7 hPa ESE 16.1 km/h 35.4 km/h 48.3% 0.0 mm
17:29 17.9 °C 6.4 °C 1001.7 hPa SE 15.9 km/h 30.6 km/h 47% 0.0 mm
17:34 17.9 °C 6.3 °C 1001.7 hPa ESE 15.6 km/h 25.7 km/h 46.7% 0.0 mm
17:39 17.8 °C 6.4 °C 1001.6 hPa SE 15.6 km/h 27.8 km/h 47.4% 0.0 mm
17:44 17.8 °C 6.5 °C 1001.6 hPa SE 15.6 km/h 29.6 km/h 47.5% 0.0 mm
17:49 17.8 °C 6.6 °C 1001.6 hPa SE 15.8 km/h 29 km/h 48% 0.0 mm
17:54 17.8 °C 6.6 °C 1001.5 hPa SE 16.1 km/h 29.6 km/h 48.1% 0.0 mm
17:59 17.5 °C 6.7 °C 1001.5 hPa SE 16.6 km/h 29 km/h 49% 0.0 mm
18:04 17.6 °C 6.7 °C 1001.7 hPa ESE 17.2 km/h 33.3 km/h 48.9% 0.0 mm
18:09 17.5 °C 6.6 °C 1001.7 hPa ESE 17.9 km/h 35.9 km/h 48.7% 0.0 mm
18:14 17.3 °C 6.5 °C 1001.7 hPa SE 19 km/h 35.4 km/h 49% 0.0 mm
18:19 17.3 °C 6.5 °C 1001.8 hPa SE 18 km/h 30.6 km/h 49% 0.0 mm
18:24 17.2 °C 6.6 °C 1001.8 hPa ESE 16.4 km/h 36.2 km/h 49.6% 0.0 mm
18:29 17 °C 6.6 °C 1001.8 hPa SE 17.4 km/h 37 km/h 50.6% 0.0 mm
18:34 16.9 °C 6.7 °C 1001.8 hPa SE 19 km/h 35.4 km/h 51% 0.0 mm
18:39 16.9 °C 6.7 °C 1001.8 hPa SE 18 km/h 33.8 km/h 51.1% 0.0 mm
18:44 16.8 °C 6.9 °C 1001.8 hPa SE 16.1 km/h 25.7 km/h 52% 0.0 mm
18:49 16.8 °C 6.6 °C 1001.9 hPa SE 15.6 km/h 29.6 km/h 51.1% 0.0 mm
18:54 16.6 °C 6.6 °C 1001.9 hPa SSE 14.8 km/h 30.9 km/h 51.8% 0.0 mm
18:59 16.3 °C 6.6 °C 1001.9 hPa SSE 17.2 km/h 32.2 km/h 52.4% 0.0 mm
19:04 16.4 °C 6.8 °C 1002.0 hPa SE 20.1 km/h 32.2 km/h 52.9% 0.0 mm
19:09 16.2 °C 6.8 °C 1002.0 hPa SE 19.1 km/h 31.5 km/h 53.3% 0.0 mm
19:14 16.2 °C 6.9 °C 1002.0 hPa SE 17.2 km/h 32.2 km/h 53.9% 0.0 mm
19:19 16.2 °C 6.6 °C 1002.1 hPa SE 16.8 km/h 25.9 km/h 53.2% 0.0 mm
19:24 16.1 °C 6.7 °C 1002.1 hPa SE 16.1 km/h 27 km/h 53.6% 0.0 mm
19:29 16.1 °C 6.5 °C 1002.1 hPa SE 14.9 km/h 27.8 km/h 53% 0.0 mm
19:34 16 °C 6.4 °C 1002.2 hPa SE 13 km/h 26.2 km/h 53% 0.0 mm
19:39 15.9 °C 6.5 °C 1002.2 hPa SE 13.7 km/h 30.6 km/h 53.6% 0.0 mm
19:44 15.8 °C 6.5 °C 1002.2 hPa SE 14.8 km/h 30.6 km/h 53.9% 0.0 mm
19:49 15.8 °C 6.4 °C 1002.2 hPa SSE 14.4 km/h 29 km/h 53.8% 0.0 mm
19:54 15.8 °C 6.2 °C 1002.2 hPa SSE 13.7 km/h 24.1 km/h 53% 0.0 mm
19:59 15.7 °C 6.2 °C 1002.2 hPa SSE 13 km/h 24.1 km/h 53% 0.0 mm
20:04 15.8 °C 6 °C 1002.4 hPa SSE 12.2 km/h 21.7 km/h 52.1% 0.0 mm
20:09 15.7 °C 6.1 °C 1002.4 hPa SSE 11.8 km/h 20.9 km/h 52.9% 0.0 mm
20:14 15.7 °C 6.1 °C 1002.4 hPa SSE 11.1 km/h 24.5 km/h 53% 0.0 mm
20:19 15.6 °C 6.1 °C 1002.4 hPa SSE 11.5 km/h 24.1 km/h 53.2% 0.0 mm
20:24 15.4 °C 6.2 °C 1002.4 hPa Sur 12.2 km/h 20.9 km/h 54% 0.0 mm
20:29 15.4 °C 6.3 °C 1002.4 hPa Sur 12.1 km/h 19.3 km/h 54.8% 0.0 mm
20:34 15.3 °C 6.3 °C 1002.4 hPa Sur 11.9 km/h 16.7 km/h 55.2% 0.0 mm
20:39 15.3 °C 6.6 °C 1002.4 hPa SSE 11 km/h 17.2 km/h 56% 0.0 mm
20:44 15.3 °C 6.7 °C 1002.4 hPa Sur 9.5 km/h 17.7 km/h 56.5% 0.0 mm
20:49 15.2 °C 6.7 °C 1002.4 hPa SSE 9.8 km/h 20.4 km/h 57% 0.0 mm
20:54 15.1 °C 6.7 °C 1002.4 hPa Sur 10.3 km/h 20.9 km/h 57.4% 0.0 mm
20:59 15.1 °C 6.8 °C 1002.4 hPa SE 10.3 km/h 20.9 km/h 58% 0.0 mm
21:04 15 °C 6.8 °C 1002.4 hPa SSE 10.3 km/h 20.4 km/h 58% 0.0 mm
21:09 14.9 °C 6.9 °C 1002.4 hPa SSE 10.2 km/h 20.9 km/h 58.6% 0.0 mm
21:14 14.8 °C 6.9 °C 1002.4 hPa SSE 10 km/h 20.9 km/h 59% 0.0 mm
21:19 14.8 °C 7 °C 1002.5 hPa Sur 10.1 km/h 20.4 km/h 59.7% 0.0 mm
21:24 14.7 °C 7 °C 1002.5 hPa SSE 10.3 km/h 20.9 km/h 60% 0.0 mm
21:29 14.7 °C 7 °C 1002.5 hPa Sur 10.6 km/h 17.7 km/h 60% 0.0 mm
21:34 14.7 °C 7 °C 1002.6 hPa SSE 11.1 km/h 16.1 km/h 60% 0.0 mm
21:39 14.7 °C 7 °C 1002.6 hPa SSE 9.7 km/h 16.1 km/h 60% 0.0 mm
21:44 14.7 °C 7.1 °C 1002.6 hPa SE 7.6 km/h 16.7 km/h 60.2% 0.0 mm
21:49 14.7 °C 7 °C 1002.8 hPa SE 8 km/h 16.1 km/h 60.1% 0.0 mm
21:54 14.7 °C 7 °C 1002.8 hPa SSE 8.7 km/h 14.5 km/h 60% 0.0 mm
21:59 14.7 °C 7 °C 1002.8 hPa Sur 8.2 km/h 12.9 km/h 60% 0.0 mm
22:04 14.6 °C 7.1 °C 1002.9 hPa SSE 7.6 km/h 11.3 km/h 60.8% 0.0 mm
22:09 14.6 °C 7.2 °C 1002.9 hPa SSO 6.2 km/h 9.5 km/h 61% 0.0 mm
22:14 14.6 °C 6.9 °C 1002.9 hPa SSO 3.9 km/h 9.7 km/h 60% 0.0 mm
22:19 14.6 °C 7 °C 1002.9 hPa SSO 4.2 km/h 13 km/h 60.4% 0.0 mm
22:24 14.6 °C 6.9 °C 1002.9 hPa SSO 4.7 km/h 13 km/h 60% 0.0 mm
22:29 14.6 °C 6.9 °C 1002.9 hPa OSO 4.8 km/h 9.7 km/h 60% 0.0 mm
22:34 14.6 °C 7.1 °C 1003.1 hPa SSO 5 km/h 9.5 km/h 60.7% 0.0 mm
22:39 14.7 °C 7.1 °C 1003.1 hPa SSO 5.3 km/h 13 km/h 60.5% 0.0 mm
22:44 14.7 °C 7.2 °C 1003.1 hPa SSE 5.8 km/h 12.9 km/h 60.8% 0.0 mm
22:49 14.7 °C 7.2 °C 1003.1 hPa Sur 5.8 km/h 13.7 km/h 61% 0.0 mm
22:54 14.6 °C 7.2 °C 1003.1 hPa Sur 5.8 km/h 14.5 km/h 61% 0.0 mm
22:59 14.6 °C 7.2 °C 1003.1 hPa Sur 5.4 km/h 12.9 km/h 61% 0.0 mm
23:04 14.6 °C 7.2 °C 1003.1 hPa SSE 5 km/h 9.7 km/h 61% 0.0 mm
23:09 14.6 °C 7.1 °C 1003.1 hPa SSE 5.3 km/h 11.1 km/h 61% 0.0 mm
23:14 14.5 °C 7.1 °C 1003.1 hPa SE 5.8 km/h 11.3 km/h 61.3% 0.0 mm
23:19 14.6 °C 7.3 °C 1003.2 hPa SO 5.1 km/h 9.5 km/h 61.8% 0.0 mm
23:24 14.6 °C 7.3 °C 1003.2 hPa SSO 3.9 km/h 9.7 km/h 61.5% 0.0 mm
23:29 14.6 °C 7.3 °C 1003.2 hPa SSE 4.3 km/h 9.7 km/h 61.4% 0.0 mm
23:34 14.5 °C 7.2 °C 1003.3 hPa Sur 5 km/h 9.7 km/h 61.5% 0.0 mm
23:39 14.5 °C 7.3 °C 1003.3 hPa Sur 4.6 km/h 8 km/h 62% 0.0 mm
23:44 14.5 °C 7.3 °C 1003.3 hPa ESE 3.9 km/h 10 km/h 61.9% 0.0 mm
23:49 14.6 °C 7.3 °C 1003.3 hPa SSE 3.9 km/h 9.7 km/h 61.9% 0.0 mm
23:54 14.6 °C 7.3 °C 1003.1 hPa Sur 3.9 km/h 8 km/h 61.5% 0.0 mm
23:59 14.6 °C 7.3 °C 1003.1 hPa Sur 4.4 km/h 14.8 km/h 61.5% 0.0 mm
Murcia-Puente Tocinos, España
Compliments of Weather Underground - 3 mb

La estación de MeteoMurcia.com, publica sus datos en los siguientes proyectos:

Weather Underground PWS IMURCIAP2 Meteoclimatic www.awekas.at

W3Counter
Web Analytics